Time;durP1;ratioP1;P1;durP2;ratioP2;P2;SDS_P1;SDS_P2;PMS_P1;PMS_P2;Temp;Humidity;BMP_temperature;BMP_pressure;BME280_temperature;BME280_humidity;BME280_pressure;Samples;Min_cycle;Max_cycle;Signal;HPM_P1;HPM_P2
2022/08/22 00:01:23;;;;;;;2.95;1.02;;;18.40;98.00;;;;;;5041686;28;20041;-35
2022/08/22 00:03:57;;;;;;;3.88;1.10;;;18.30;98.20;;;;;;5038933;28;20071;-35
2022/08/22 00:06:53;;;;;;;5.25;1.58;;;18.30;98.40;;;;;;5041635;28;20526;-34
2022/08/22 00:09:31;;;;;;;4.63;1.27;;;18.40;98.80;;;;;;5048640;28;20486;-34
2022/08/22 00:12:03;;;;;;;5.55;1.13;;;18.30;99.10;;;;;;5047784;28;20037;-35
2022/08/22 00:14:52;;;;;;;3.40;1.17;;;18.30;99.30;;;;;;5042098;28;20486;-34
2022/08/22 00:17:45;;;;;;;5.20;1.83;;;18.30;99.60;;;;;;5043084;28;20299;-34
2022/08/22 00:20:38;;;;;;;6.25;1.42;;;18.30;99.80;;;;;;5040614;28;20045;-35
2022/08/22 00:23:32;;;;;;;4.85;1.48;;;18.30;99.90;;;;;;5041976;28;20037;-35
2022/08/22 00:26:07;;;;;;;3.95;1.10;;;18.30;99.90;;;;;;5041085;28;20037;-36
2022/08/22 00:28:40;;;;;;;4.65;1.45;;;18.20;99.90;;;;;;5035984;28;20040;-34
2022/08/22 00:31:39;;;;;;;4.68;1.60;;;18.20;99.90;;;;;;5040804;28;20041;-34
2022/08/22 00:34:22;;;;;;;3.47;1.33;;;18.20;99.90;;;;;;5041275;28;20134;-35
2022/08/22 00:37:10;;;;;;;6.50;1.58;;;18.10;99.90;;;;;;5042791;28;20028;-34
2022/08/22 00:39:57;;;;;;;5.88;1.42;;;18.10;99.90;;;;;;5038365;28;20037;-34
2022/08/22 00:42:31;;;;;;;5.35;1.10;;;18.20;99.90;;;;;;5042310;28;20154;-34
2022/08/22 00:45:11;;;;;;;5.47;1.15;;;18.10;99.90;;;;;;5040940;28;20036;-34
2022/08/22 00:48:11;;;;;;;6.22;1.60;;;18.10;99.90;;;;;;5044224;28;20083;-34
2022/08/22 00:51:14;;;;;;;4.45;1.42;;;18.10;99.90;;;;;;5043062;28;20072;-34
2022/08/22 00:53:54;;;;;;;3.35;0.90;;;18.10;99.90;;;;;;5036820;28;20041;-35
2022/08/22 00:56:39;;;;;;;3.83;1.10;;;18.20;99.90;;;;;;5042956;28;20537;-34
2022/08/22 00:59:33;;;;;;;3.28;1.02;;;18.10;99.90;;;;;;5039514;28;20099;-34
2022/08/22 01:02:02;;;;;;;4.18;1.52;;;18.10;99.90;;;;;;5036470;28;20053;-34
2022/08/22 01:04:51;;;;;;;9.98;1.30;;;18.10;99.90;;;;;;5043368;28;20041;-34
2022/08/22 01:07:34;;;;;;;4.13;1.20;;;18.10;99.90;;;;;;5041269;28;20045;-35
2022/08/22 01:10:17;;;;;;;4.97;1.05;;;18.10;99.90;;;;;;5042043;28;20041;-35
2022/08/22 01:13:00;;;;;;;;;;;18.10;99.90;;;;;;5039758;28;20059;-34
2022/08/22 01:15:30;;;;;;;4.25;1.40;;;18.10;99.90;;;;;;5039408;28;19924;-34
2022/08/22 01:18:27;;;;;;;6.07;1.20;;;18.10;99.90;;;;;;5035217;28;20047;-34
2022/08/22 01:21:11;;;;;;;6.00;1.58;;;18.10;99.90;;;;;;5038697;28;20047;-35
2022/08/22 01:24:10;;;;;;;4.13;1.27;;;18.10;99.90;;;;;;5044312;28;20391;-34
2022/08/22 01:27:00;;;;;;;6.38;1.48;;;18.10;99.90;;;;;;5045776;28;20052;-34
2022/08/22 01:29:43;;;;;;;4.80;1.33;;;18.10;99.90;;;;;;5042420;28;20494;-35
2022/08/22 01:32:41;;;;;;;6.15;1.25;;;18.00;99.90;;;;;;5039966;28;20449;-34
2022/08/22 01:35:29;;;;;;;1.75;0.93;;;18.00;99.90;;;;;;5040139;28;20036;-34
2022/08/22 01:38:18;;;;;;;5.18;1.35;;;18.00;99.90;;;;;;5043695;28;20034;-34
2022/08/22 01:40:53;;;;;;;4.28;1.50;;;18.00;99.90;;;;;;5036935;28;20041;-34
2022/08/22 01:43:43;;;;;;;5.38;1.10;;;18.00;99.90;;;;;;5042993;28;20380;-34
2022/08/22 01:46:27;;;;;;;4.60;1.75;;;17.90;99.90;;;;;;5033116;28;20055;-35
2022/08/22 01:49:17;;;;;;;5.22;1.92;;;17.90;99.90;;;;;;5038723;28;20499;-34
2022/08/22 01:52:12;;;;;;;3.75;1.50;;;17.90;99.90;;;;;;5042950;28;20109;-34
2022/08/22 01:55:13;;;;;;;8.98;1.90;;;17.80;99.90;;;;;;5037632;28;20048;-37
2022/08/22 01:58:18;;;;;;;5.15;1.80;;;17.80;99.90;;;;;;5036283;28;20050;-34
2022/08/22 02:00:56;;;;;;;6.35;1.80;;;17.80;99.90;;;;;;5036711;28;20506;-34
2022/08/22 02:03:26;;;;;;;5.95;1.70;;;17.70;99.90;;;;;;5042667;28;20053;-34
2022/08/22 02:06:15;;;;;;;6.22;1.98;;;17.70;99.90;;;;;;5043099;28;20033;-34
2022/08/22 02:09:05;;;;;;;5.75;1.83;;;17.70;99.90;;;;;;5039618;28;20037;-34
2022/08/22 02:11:52;;;;;;;6.38;2.20;;;17.60;99.90;;;;;;5041621;28;20078;-34
2022/08/22 02:14:47;;;;;;;5.68;2.55;;;17.60;99.90;;;;;;5044405;28;20045;-35
2022/08/22 02:17:31;;;;;;;3.97;1.95;;;17.60;99.90;;;;;;5033492;28;20491;-35
2022/08/22 02:20:02;;;;;;;5.13;2.58;;;17.60;99.90;;;;;;5041300;28;20068;-34
2022/08/22 02:22:41;;;;;;;4.35;2.22;;;17.60;99.90;;;;;;5044097;28;20082;-35
2022/08/22 02:25:20;;;;;;;5.88;1.85;;;17.60;99.90;;;;;;5041578;28;20083;-34
2022/08/22 02:28:18;;;;;;;5.38;1.90;;;17.60;99.90;;;;;;5038715;28;20054;-34
2022/08/22 02:31:02;;;;;;;8.32;2.30;;;17.60;99.90;;;;;;5035591;28;20457;-34
2022/08/22 02:33:34;;;;;;;5.03;1.77;;;17.50;99.90;;;;;;5042876;28;20043;-34
2022/08/22 02:36:17;;;;;;;4.13;1.80;;;17.50;99.90;;;;;;5041005;28;20502;-36
2022/08/22 02:39:22;;;;;;;6.32;2.30;;;17.50;99.90;;;;;;5041114;28;20044;-34
2022/08/22 02:41:58;;;;;;;4.15;1.98;;;17.50;99.90;;;;;;5032914;28;20044;-34
2022/08/22 02:44:38;;;;;;;5.57;1.90;;;17.40;99.90;;;;;;5041068;28;20045;-34
2022/08/22 02:47:15;;;;;;;4.43;2.42;;;17.40;99.90;;;;;;5040400;28;20612;-34
2022/08/22 02:49:47;;;;;;;5.57;2.10;;;17.30;99.90;;;;;;5036621;28;20037;-35
2022/08/22 02:52:23;;;;;;;4.28;2.05;;;17.30;99.90;;;;;;5043240;28;20049;-34
2022/08/22 02:54:55;;;;;;;7.40;2.45;;;17.20;99.90;;;;;;5041856;28;20503;-34
2022/08/22 02:57:30;;;;;;;9.15;2.13;;;17.20;99.90;;;;;;5041251;28;20097;-35
2022/08/22 03:00:15;;;;;;;4.82;2.03;;;17.20;99.90;;;;;;5042615;28;20455;-35
2022/08/22 03:03:01;;;;;;;6.43;2.08;;;17.20;99.90;;;;;;5046238;28;20048;-35
2022/08/22 03:05:36;;;;;;;5.05;2.10;;;17.20;99.90;;;;;;5045022;28;20094;-35
2022/08/22 03:08:21;;;;;;;6.70;2.20;;;17.20;99.90;;;;;;5035040;28;20140;-34
2022/08/22 03:11:18;;;;;;;4.38;1.85;;;17.20;99.90;;;;;;5044733;28;20032;-34
2022/08/22 03:13:57;;;;;;;5.93;2.00;;;17.20;99.90;;;;;;5036833;28;20029;-34
2022/08/22 03:16:48;;;;;;;5.70;2.05;;;17.20;99.90;;;;;;5039052;28;20038;-34
2022/08/22 03:19:26;;;;;;;5.70;1.95;;;17.20;99.90;;;;;;5035101;28;20045;-34
2022/08/22 03:21:56;;;;;;;6.43;2.20;;;17.20;99.90;;;;;;5043963;28;20072;-34
2022/08/22 03:24:34;;;;;;;5.32;1.85;;;17.20;99.90;;;;;;5037367;28;20064;-34
2022/08/22 03:27:17;;;;;;;5.68;2.10;;;17.20;99.90;;;;;;5038756;28;20120;-34
2022/08/22 03:29:50;;;;;;;6.20;2.00;;;17.20;99.90;;;;;;5037667;28;20449;-34
2022/08/22 03:32:22;;;;;;;9.05;2.33;;;17.20;99.90;;;;;;5040111;28;20521;-34
2022/08/22 03:35:02;;;;;;;4.80;1.23;;;17.20;99.90;;;;;;5044122;28;20044;-35
2022/08/22 03:37:36;;;;;;;5.75;1.60;;;17.20;99.90;;;;;;5045361;28;20569;-34
2022/08/22 03:40:35;;;;;;;6.13;1.70;;;17.20;99.90;;;;;;5039295;28;20481;-35
2022/08/22 03:43:32;;;;;;;5.50;1.75;;;17.20;99.90;;;;;;5044021;28;20045;-35
2022/08/22 03:46:30;;;;;;;5.05;1.67;;;17.10;99.90;;;;;;5039975;28;20060;-35
2022/08/22 03:49:22;;;;;;;4.45;1.63;;;17.20;99.90;;;;;;5038743;28;20394;-35
2022/08/22 03:51:54;;;;;;;8.00;2.00;;;17.10;99.90;;;;;;5047367;28;20108;-35
2022/08/22 03:54:38;;;;;;;10.20;2.20;;;17.10;99.90;;;;;;5044210;28;20048;-34
2022/08/22 03:57:36;;;;;;;5.57;1.65;;;17.10;99.90;;;;;;5042531;28;20765;-35
2022/08/22 04:00:10;;;;;;;5.45;1.83;;;17.10;99.90;;;;;;5020035;28;20147;-35
2022/08/22 04:02:42;;;;;;;4.68;1.48;;;17.10;99.90;;;;;;5041597;28;20037;-35
2022/08/22 04:05:35;;;;;;;4.20;1.42;;;17.10;99.90;;;;;;5043492;28;20071;-34
2022/08/22 04:08:24;;;;;;;5.22;1.13;;;17.00;99.90;;;;;;5046370;28;20029;-35
2022/08/22 04:11:30;;;;;;;4.38;1.50;;;17.00;99.90;;;;;;5041695;28;20119;-35
2022/08/22 04:14:10;;;;;;;4.10;1.25;;;17.00;99.90;;;;;;5045941;28;20041;-35
2022/08/22 04:17:03;;;;;;;5.82;1.45;;;17.00;99.90;;;;;;5043967;28;20037;-35
2022/08/22 04:20:24;;;;;;;5.32;1.40;;;17.00;99.90;;;;;;5048155;28;20102;-34
2022/08/22 04:22:52;;;;;;;5.20;1.77;;;16.90;99.90;;;;;;5022093;28;20522;-35
2022/08/22 04:25:33;;;;;;;6.75;2.05;;;16.90;99.90;;;;;;5044104;28;20048;-34
2022/08/22 04:28:28;;;;;;;8.30;2.42;;;16.90;99.90;;;;;;5043989;28;20033;-34
2022/08/22 04:31:17;;;;;;;6.28;2.00;;;16.90;99.90;;;;;;5040034;28;20049;-34
2022/08/22 04:33:52;;;;;;;6.20;2.50;;;16.90;99.90;;;;;;5040129;28;20029;-37
2022/08/22 04:36:42;;;;;;;5.05;1.92;;;17.00;99.90;;;;;;5040787;28;20072;-36
2022/08/22 04:39:20;;;;;;;8.93;1.90;;;17.00;99.90;;;;;;5040678;28;20048;-34
2022/08/22 04:41:52;;;;;;;5.70;1.90;;;17.00;99.90;;;;;;5047817;28;20048;-34
2022/08/22 04:44:32;;;;;;;2.88;1.48;;;17.00;99.90;;;;;;5043499;28;20071;-34
2022/08/22 04:47:05;;;;;;;7.47;2.00;;;17.00;99.90;;;;;;5038397;28;20044;-35
2022/08/22 04:49:45;;;;;;;;;;;17.00;99.90;;;;;;5046654;28;20028;-34
2022/08/22 04:52:35;;;;;;;5.40;2.08;;;17.00;99.90;;;;;;5048613;28;20035;-34
2022/08/22 04:55:50;;;;;;;6.32;1.73;;;17.00;99.90;;;;;;5036163;28;20095;-34
2022/08/22 04:58:40;;;;;;;4.45;1.52;;;17.00;99.90;;;;;;5018996;28;20220;-34
2022/08/22 05:01:06;;;;;;;5.03;1.52;;;17.00;99.90;;;;;;5043747;28;20080;-34
2022/08/22 05:03:36;;;;;;;6.13;1.63;;;17.00;99.90;;;;;;5041762;28;20099;-35
2022/08/22 05:06:04;;;;;;;3.90;1.60;;;17.00;99.90;;;;;;5046697;28;20796;-35
2022/08/22 05:08:34;;;;;;;6.07;1.77;;;17.00;99.90;;;;;;5042931;28;20029;-35
2022/08/22 05:11:04;;;;;;;5.60;1.73;;;17.00;99.90;;;;;;5040811;28;20083;-35
2022/08/22 05:13:50;;;;;;;5.28;1.35;;;16.90;99.90;;;;;;5039231;28;20520;-34
2022/08/22 05:16:22;;;;;;;4.53;1.75;;;16.90;99.90;;;;;;5039649;28;20091;-34
2022/08/22 05:18:53;;;;;;;4.45;1.58;;;16.90;99.90;;;;;;5036796;28;20062;-35
2022/08/22 05:21:23;;;;;;;11.07;2.50;;;16.90;99.90;;;;;;5039599;28;20561;-34
2022/08/22 05:24:03;;;;;;;6.05;1.98;;;17.00;99.90;;;;;;5044493;28;20076;-34
2022/08/22 05:26:36;;;;;;;8.35;2.08;;;17.00;99.90;;;;;;5038208;28;20037;-34
2022/08/22 05:29:02;;;;;;;;;;;17.00;99.90;;;;;;5042265;28;20032;-34
2022/08/22 05:31:36;;;;;;;4.50;1.60;;;17.00;99.90;;;;;;5039006;28;19917;-34
2022/08/22 05:34:16;;;;;;;7.30;2.20;;;17.00;99.90;;;;;;5039686;28;20617;-35
2022/08/22 05:36:51;;;;;;;6.28;1.67;;;17.00;99.90;;;;;;5039448;28;20402;-34
2022/08/22 05:39:21;;;;;;;7.10;1.65;;;17.10;99.90;;;;;;5043147;28;20111;-35
2022/08/22 05:41:48;;;;;;;5.70;2.08;;;17.10;99.90;;;;;;5047299;28;20052;-34
2022/08/22 05:44:24;;;;;;;4.80;1.98;;;17.20;99.90;;;;;;5036262;28;20037;-34
2022/08/22 05:46:58;;;;;;;7.22;1.75;;;17.20;99.90;;;;;;5044148;28;20068;-34
2022/08/22 05:49:37;;;;;;;6.57;1.80;;;17.30;99.90;;;;;;5038017;28;20048;-34
2022/08/22 05:52:22;;;;;;;5.95;1.92;;;17.40;99.90;;;;;;5039591;28;20108;-34
2022/08/22 05:55:03;;;;;;;7.78;2.35;;;17.40;99.90;;;;;;5036975;28;20051;-34
2022/08/22 05:57:38;;;;;;;5.88;1.95;;;17.40;99.90;;;;;;5042489;28;20131;-34
2022/08/22 06:00:25;;;;;;;8.18;2.22;;;17.40;99.90;;;;;;5041941;28;20555;-35
2022/08/22 06:03:16;;;;;;;5.80;1.90;;;17.50;99.90;;;;;;5034784;28;20045;-35
2022/08/22 06:05:46;;;;;;;4.82;1.60;;;17.50;99.90;;;;;;5041099;28;20147;-34
2022/08/22 06:08:28;;;;;;;6.00;2.00;;;17.50;99.90;;;;;;5041169;28;20514;-35
2022/08/22 06:10:56;;;;;;;;;;;17.60;99.90;;;;;;5037107;28;20108;-34
2022/08/22 06:13:37;;;;;;;5.68;2.00;;;17.60;99.90;;;;;;5046095;28;19925;-34
2022/08/22 06:16:10;;;;;;;5.53;1.60;;;17.70;99.90;;;;;;5039338;28;20491;-35
2022/08/22 06:18:38;;;;;;;5.07;1.92;;;17.80;99.90;;;;;;5038893;28;20126;-34
2022/08/22 06:21:19;;;;;;;5.78;1.90;;;17.80;99.90;;;;;;5039230;28;20044;-35
2022/08/22 06:23:58;;;;;;;4.95;1.90;;;17.80;99.90;;;;;;5040362;28;20132;-34
2022/08/22 06:26:30;;;;;;;5.50;1.80;;;17.90;99.90;;;;;;5042111;28;20098;-34
2022/08/22 06:28:58;;;;;;;5.85;1.90;;;17.90;99.90;;;;;;5045812;28;20125;-34
2022/08/22 06:31:36;;;;;;;11.35;2.50;;;17.90;99.90;;;;;;5039570;28;20102;-34
2022/08/22 06:34:16;;;;;;;7.03;2.63;;;18.00;99.90;;;;;;5041908;28;20529;-35
2022/08/22 06:36:47;;;;;;;8.43;2.67;;;18.00;99.90;;;;;;5038850;28;20057;-35
2022/08/22 06:39:27;;;;;;;7.13;2.30;;;18.10;99.90;;;;;;5035279;28;20045;-35
2022/08/22 06:41:55;;;;;;;8.52;2.88;;;18.10;99.90;;;;;;5032747;28;20422;-35
2022/08/22 06:44:28;;;;;;;6.53;1.90;;;18.10;99.90;;;;;;5036054;28;21034;-34
2022/08/22 06:46:58;;;;;;;6.82;2.10;;;18.20;99.90;;;;;;5039348;28;20029;-36
2022/08/22 06:49:26;;;;;;;5.15;2.00;;;18.20;99.90;;;;;;5036411;28;20045;-33
2022/08/22 06:51:56;;;;;;;7.03;2.17;;;18.20;99.90;;;;;;5036661;28;20137;-44
2022/08/22 06:54:26;;;;;;;5.25;2.08;;;18.30;99.90;;;;;;5038830;28;20515;-35
2022/08/22 06:56:54;;;;;;;6.13;1.83;;;18.30;99.90;;;;;;5036811;28;20053;-34
2022/08/22 06:59:26;;;;;;;5.05;1.80;;;18.30;99.90;;;;;;5034830;28;20037;-34
2022/08/22 07:02:02;;;;;;;5.55;2.08;;;18.40;99.90;;;;;;5039141;28;20477;-34
2022/08/22 07:04:28;;;;;;;5.75;1.77;;;18.50;99.90;;;;;;5040280;28;20036;-34
2022/08/22 07:06:55;;;;;;;5.38;2.13;;;18.50;99.90;;;;;;5032716;28;20048;-35
2022/08/22 07:09:36;;;;;;;7.25;1.90;;;18.60;99.90;;;;;;5044653;28;20040;-35
2022/08/22 07:12:20;;;;;;;6.07;1.92;;;18.60;99.90;;;;;;5033337;28;20406;-34
2022/08/22 07:14:50;;;;;;;7.15;1.75;;;18.70;99.90;;;;;;5040633;28;20040;-34
2022/08/22 07:17:24;;;;;;;8.25;1.88;;;18.80;99.90;;;;;;5035087;28;20384;-35
2022/08/22 07:20:23;;;;;;;5.32;1.88;;;18.80;99.90;;;;;;5036065;28;20053;-34
2022/08/22 07:23:04;;;;;;;5.68;1.67;;;18.90;99.90;;;;;;5037389;28;20048;-35
2022/08/22 07:25:34;;;;;;;6.20;2.20;;;19.00;99.90;;;;;;5034410;28;20052;-35
2022/08/22 07:28:37;;;;;;;5.30;1.55;;;19.00;99.90;;;;;;5032284;28;20402;-34
2022/08/22 07:31:26;;;;;;;4.88;1.85;;;19.00;99.90;;;;;;5041600;28;20402;-34
2022/08/22 07:33:56;;;;;;;4.68;1.73;;;19.00;99.90;;;;;;5033807;28;20048;-34
2022/08/22 07:36:36;;;;;;;7.63;1.55;;;19.00;99.90;;;;;;5039395;28;20044;-34
2022/08/22 07:39:20;;;;;;;6.55;1.77;;;19.10;99.90;;;;;;5033896;28;20041;-34
2022/08/22 07:42:01;;;;;;;4.95;1.70;;;19.10;99.90;;;;;;5041588;28;20041;-36
2022/08/22 07:44:51;;;;;;;6.93;1.48;;;19.10;99.90;;;;;;5037577;28;20030;-34
2022/08/22 07:47:20;;;;;;;3.92;1.08;;;19.10;99.90;;;;;;5046899;28;20501;-33
2022/08/22 07:49:59;;;;;;;6.78;1.70;;;19.10;99.90;;;;;;5030973;28;20124;-35
2022/08/22 07:52:32;;;;;;;6.13;1.70;;;19.20;99.90;;;;;;5036405;28;20049;-34
2022/08/22 07:55:12;;;;;;;6.63;2.10;;;19.20;99.90;;;;;;5044113;28;20421;-35
2022/08/22 07:57:42;;;;;;;10.02;2.42;;;19.30;99.90;;;;;;5041760;28;20048;-35
2022/08/22 08:00:14;;;;;;;5.75;1.95;;;19.40;99.90;;;;;;5038257;28;20041;-34
2022/08/22 08:02:50;;;;;;;17.42;4.95;;;19.40;99.90;;;;;;5041523;28;20140;-34
2022/08/22 08:05:17;;;;;;;7.35;2.10;;;19.50;99.90;;;;;;5038648;28;20037;-34
2022/08/22 08:07:44;;;;;;;5.72;1.92;;;19.60;99.90;;;;;;5036102;28;20414;-35
2022/08/22 08:10:18;;;;;;;7.97;2.60;;;19.70;99.90;;;;;;5037346;28;20444;-34
2022/08/22 08:12:50;;;;;;;4.05;1.70;;;19.90;99.90;;;;;;5038482;28;20041;-39
2022/08/22 08:15:22;;;;;;;5.88;1.80;;;20.10;99.90;;;;;;5042753;28;20037;-35
2022/08/22 08:17:53;;;;;;;6.05;1.80;;;20.30;99.90;;;;;;5035408;28;20041;-34
2022/08/22 08:20:22;;;;;;;9.33;1.60;;;20.50;99.90;;;;;;5044532;28;20111;-34
2022/08/22 08:22:49;;;;;;;6.72;1.27;;;20.70;99.90;;;;;;5040567;28;20300;-34
2022/08/22 08:25:20;;;;;;;8.20;1.38;;;20.80;99.90;;;;;;5037838;28;20541;-34
2022/08/22 08:30:35;;;;;;;5.38;1.23;;;21.00;99.80;;;;;;5038485;28;20091;-34
2022/08/22 08:33:04;;;;;;;4.70;1.10;;;21.10;99.10;;;;;;5042366;28;20040;-34
2022/08/22 08:35:34;;;;;;;6.63;1.40;;;21.20;98.40;;;;;;5038857;28;20108;-34
2022/08/22 08:38:30;;;;;;;4.22;1.10;;;21.30;97.80;;;;;;5036479;28;20057;-34
2022/08/22 08:41:26;;;;;;;5.20;1.13;;;21.40;96.30;;;;;;5035388;28;20053;-34
2022/08/22 08:44:10;;;;;;;3.92;0.98;;;21.40;96.40;;;;;;5037516;28;20075;-34
2022/08/22 08:46:52;;;;;;;4.50;0.93;;;21.40;96.10;;;;;;5046366;28;20033;-35
2022/08/22 08:49:28;;;;;;;;;;;21.50;95.70;;;;;;5039788;28;20143;-34
2022/08/22 08:52:45;;;;;;;2.72;0.75;;;21.40;94.80;;;;;;5042762;28;19921;-35
2022/08/22 08:55:30;;;;;;;7.30;1.08;;;21.40;95.30;;;;;;5031215;28;20055;-34
2022/08/22 08:58:31;;;;;;;8.02;1.05;;;21.40;95.10;;;;;;5039251;28;20055;-34
2022/08/22 09:01:31;;;;;;;4.57;0.88;;;21.40;94.30;;;;;;5045767;28;20071;-34
2022/08/22 09:04:32;;;;;;;5.00;1.02;;;21.50;93.60;;;;;;5038491;28;20079;-34
2022/08/22 09:07:43;;;;;;;5.20;0.98;;;21.80;92.90;;;;;;5041792;28;20103;-34
2022/08/22 09:10:15;;;;;;;5.32;1.00;;;21.90;92.10;;;;;;5036772;28;20083;-35
2022/08/22 09:12:40;;;;;;;;;;;22.00;92.40;;;;;;5037147;28;20037;-35
2022/08/22 09:15:36;;;;;;;5.20;1.00;;;22.00;90.50;;;;;;5038999;28;19990;-34
2022/08/22 09:18:16;;;;;;;4.22;1.02;;;22.00;91.70;;;;;;5020872;28;20052;-34
2022/08/22 09:20:56;;;;;;;5.72;1.20;;;21.90;91.20;;;;;;5038931;28;20522;-34
2022/08/22 09:23:33;;;;;;;4.18;0.90;;;21.90;91.10;;;;;;5035757;28;20041;-36
2022/08/22 09:26:08;;;;;;;7.07;0.82;;;22.00;90.90;;;;;;5031935;28;20043;-35
2022/08/22 09:28:47;;;;;;;6.07;1.25;;;22.00;90.40;;;;;;5036722;28;20479;-35
2022/08/22 09:31:27;;;;;;;8.88;1.45;;;22.00;90.20;;;;;;5046072;28;20103;-35
2022/08/22 09:34:29;;;;;;;6.15;1.10;;;22.00;90.10;;;;;;5036946;28;20471;-34
2022/08/22 09:37:18;;;;;;;4.78;0.90;;;22.00;88.50;;;;;;5032034;28;20628;-35
2022/08/22 09:39:52;;;;;;;5.50;1.05;;;22.10;89.40;;;;;;5041361;28;20513;-35
2022/08/22 09:42:28;;;;;;;3.17;1.10;;;22.10;89.60;;;;;;5042285;28;20063;-36
2022/08/22 09:45:06;;;;;;;5.18;1.10;;;22.20;89.60;;;;;;5032811;28;20037;-35
2022/08/22 09:47:55;;;;;;;5.70;1.25;;;22.30;88.70;;;;;;5036793;28;20116;-35
2022/08/22 09:50:33;;;;;;;3.85;0.80;;;22.30;88.50;;;;;;5042841;28;20048;-34
2022/08/22 09:53:10;;;;;;;5.20;1.10;;;22.40;88.60;;;;;;5037160;28;20554;-35
2022/08/22 09:56:02;;;;;;;4.45;1.10;;;22.50;87.80;;;;;;5036900;28;20124;-36
2022/08/22 09:58:46;;;;;;;6.07;1.15;;;22.70;87.00;;;;;;5038925;28;20068;-35
2022/08/22 10:01:22;;;;;;;3.75;0.80;;;22.80;85.90;;;;;;5037823;28;20144;-36
2022/08/22 10:04:05;;;;;;;4.80;1.00;;;23.00;85.30;;;;;;5038575;28;20334;-36
2022/08/22 10:06:43;;;;;;;3.08;0.77;;;23.20;84.20;;;;;;5038227;28;20115;-35
2022/08/22 10:09:22;;;;;;;4.18;0.80;;;23.40;82.70;;;;;;5045493;28;20538;-36
2022/08/22 10:11:58;;;;;;;2.10;0.80;;;23.70;81.90;;;;;;5041262;28;20029;-36
2022/08/22 10:14:33;;;;;;;4.22;1.10;;;23.90;79.90;;;;;;5039300;28;21232;-35
2022/08/22 10:17:04;;;;;;;4.95;0.90;;;24.00;78.60;;;;;;5037124;28;20044;-35
2022/08/22 10:19:41;;;;;;;5.63;1.00;;;24.20;78.10;;;;;;5040227;28;20561;-37
2022/08/22 10:22:35;;;;;;;4.95;0.98;;;24.40;76.40;;;;;;5039536;28;20123;-37
2022/08/22 10:25:56;;;;;;;3.15;0.85;;;24.60;75.00;;;;;;5039725;28;20091;-37
2022/08/22 10:28:56;;;;;;;7.60;0.98;;;24.60;72.80;;;;;;5021036;28;20045;-35
2022/08/22 10:31:48;;;;;;;4.88;1.17;;;24.60;71.70;;;;;;5035047;28;20044;-34
2022/08/22 10:34:27;;;;;;;6.28;1.02;;;24.60;73.10;;;;;;5040350;28;20087;-35
2022/08/22 10:37:02;;;;;;;5.93;1.17;;;24.60;67.80;;;;;;5039438;28;20044;-36
2022/08/22 10:39:45;;;;;;;4.65;0.90;;;24.80;71.50;;;;;;5035596;28;20060;-35
2022/08/22 10:42:19;;;;;;;3.92;0.88;;;25.00;67.80;;;;;;5035386;28;20087;-40
2022/08/22 10:44:54;;;;;;;2.22;0.77;;;25.00;62.80;;;;;;5038979;28;20033;-35
2022/08/22 10:47:28;;;;;;;3.55;1.00;;;25.20;65.30;;;;;;5038457;28;20036;-35
2022/08/22 10:50:03;;;;;;;4.07;0.77;;;25.20;64.30;;;;;;5038421;28;20403;-35
2022/08/22 10:53:28;;;;;;;3.88;0.80;;;25.10;62.30;;;;;;5036486;28;20044;-36
2022/08/22 10:55:46;;;;;;;5.03;1.02;;;25.20;62.70;;;;;;5036420;28;20045;-35
2022/08/22 10:58:21;;;;;;;4.88;1.10;;;25.20;64.80;;;;;;5039981;28;20049;-35
2022/08/22 11:00:53;;;;;;;5.70;0.93;;;25.20;64.20;;;;;;5038556;28;20410;-34
2022/08/22 11:03:37;;;;;;;6.83;0.93;;;25.30;64.40;;;;;;5034135;28;20517;-35
2022/08/22 11:06:09;;;;;;;4.70;0.90;;;25.40;62.50;;;;;;5040628;28;20033;-36
2022/08/22 11:08:52;;;;;;;3.95;1.00;;;25.60;63.00;;;;;;5034624;28;20034;-35
2022/08/22 11:11:24;;;;;;;4.55;1.30;;;25.90;60.20;;;;;;5035514;28;20071;-36
2022/08/22 11:14:27;;;;;;;3.00;1.00;;;26.00;58.90;;;;;;5039388;28;20053;-36
2022/08/22 11:17:14;;;;;;;2.75;0.90;;;26.00;53.30;;;;;;5042850;28;20040;-36
2022/08/22 11:20:05;;;;;;;4.80;1.00;;;26.10;56.60;;;;;;5043324;28;20418;-36
2022/08/22 11:22:46;;;;;;;4.43;1.00;;;26.10;54.60;;;;;;5039067;28;20053;-36
2022/08/22 11:25:15;;;;;;;5.47;1.02;;;26.00;53.60;;;;;;5042041;28;20394;-37
2022/08/22 11:28:05;;;;;;;4.82;0.95;;;26.00;55.40;;;;;;5041658;28;20072;-37
2022/08/22 11:30:40;;;;;;;5.00;1.13;;;26.00;54.90;;;;;;5042287;28;20029;-37
2022/08/22 11:33:30;;;;;;;5.53;1.20;;;25.90;56.40;;;;;;5041504;28;20388;-37
2022/08/22 11:36:15;;;;;;;3.33;0.77;;;26.00;56.30;;;;;;5040451;28;20573;-37
2022/08/22 11:38:53;;;;;;;4.35;1.00;;;26.00;56.90;;;;;;5043917;28;20040;-49
2022/08/22 11:41:30;;;;;;;3.55;1.10;;;26.00;56.40;;;;;;5039642;28;20482;-43
2022/08/22 11:44:07;;;;;;;3.80;0.88;;;26.10;54.30;;;;;;5035519;28;20495;-42
2022/08/22 11:46:46;;;;;;;3.60;1.10;;;26.20;55.00;;;;;;5037349;28;20515;-38
2022/08/22 11:49:48;;;;;;;5.45;0.98;;;26.30;54.00;;;;;;5039651;28;20036;-38
2022/08/22 11:52:37;;;;;;;7.38;1.30;;;26.40;54.10;;;;;;5038670;28;20049;-37
2022/08/22 11:55:21;;;;;;;9.00;1.10;;;26.40;54.70;;;;;;5042967;28;20044;-37
2022/08/22 11:57:49;;;;;;;4.00;1.10;;;26.40;53.00;;;;;;5036844;28;20523;-37
2022/08/22 12:00:23;;;;;;;3.47;1.23;;;26.30;54.90;;;;;;5044454;28;20037;-37
2022/08/22 12:03:11;;;;;;;4.93;1.30;;;26.40;54.10;;;;;;5040122;28;20104;-36
2022/08/22 12:05:46;;;;;;;3.60;0.85;;;26.40;54.30;;;;;;5041244;28;20041;-36
2022/08/22 12:08:39;;;;;;;4.50;1.40;;;26.60;52.90;;;;;;5037627;28;20060;-36
2022/08/22 12:11:25;;;;;;;2.17;0.93;;;26.80;52.10;;;;;;5035860;28;20038;-37
2022/08/22 12:14:12;;;;;;;2.72;0.90;;;26.90;53.00;;;;;;5038667;28;20047;-36
2022/08/22 12:17:05;;;;;;;7.25;1.30;;;27.00;51.90;;;;;;5041398;28;20140;-36
2022/08/22 12:19:55;;;;;;;5.90;1.38;;;27.10;51.20;;;;;;5035457;28;20048;-36
2022/08/22 12:22:42;;;;;;;5.68;1.50;;;27.20;48.60;;;;;;5043970;28;20075;-37
2022/08/22 12:25:31;;;;;;;5.28;1.00;;;27.30;48.50;;;;;;5039804;28;20046;-36
2022/08/22 12:28:26;;;;;;;4.72;1.25;;;27.20;48.30;;;;;;5043812;28;20037;-37
2022/08/22 12:31:10;;;;;;;4.15;1.00;;;27.20;47.60;;;;;;5041603;28;20041;-48
2022/08/22 12:33:48;;;;;;;6.55;1.95;;;27.20;48.60;;;;;;5044543;28;20500;-36
2022/08/22 12:36:34;;;;;;;3.17;1.02;;;27.20;49.00;;;;;;5040484;28;20047;-36
2022/08/22 12:39:28;;;;;;;5.65;1.33;;;27.30;49.10;;;;;;5047479;28;20044;-36
2022/08/22 12:42:20;;;;;;;3.53;1.30;;;27.50;48.90;;;;;;5040640;28;20044;-35
2022/08/22 12:44:54;;;;;;;3.67;1.27;;;27.80;47.50;;;;;;5042980;28;20053;-37
2022/08/22 12:47:47;;;;;;;3.95;1.23;;;28.00;46.70;;;;;;5040291;28;20779;-36
2022/08/22 12:50:20;;;;;;;7.45;1.50;;;28.30;45.70;;;;;;5042429;28;20038;-35
2022/08/22 12:53:19;;;;;;;3.53;1.13;;;28.50;45.30;;;;;;5042312;28;20045;-37
2022/08/22 12:56:00;;;;;;;6.15;1.25;;;28.70;44.60;;;;;;5045237;28;20094;-36
2022/08/22 12:59:02;;;;;;;2.35;0.82;;;28.70;44.20;;;;;;5044926;28;20043;-35
2022/08/22 13:01:35;;;;;;;7.75;1.75;;;28.50;43.30;;;;;;5039934;28;20076;-36
2022/08/22 13:04:06;;;;;;;4.78;1.10;;;28.40;44.20;;;;;;5039836;28;20080;-36
2022/08/22 13:06:35;;;;;;;3.67;1.38;;;28.30;44.40;;;;;;5037132;28;20112;-36
2022/08/22 13:09:31;;;;;;;3.85;1.20;;;28.30;44.40;;;;;;5038063;28;20037;-36
2022/08/22 13:12:19;;;;;;;4.63;1.08;;;28.20;45.00;;;;;;5031875;28;20144;-36
2022/08/22 13:14:49;;;;;;;4.53;1.25;;;28.20;44.80;;;;;;5041427;28;20514;-36
2022/08/22 13:17:18;;;;;;;6.80;1.40;;;28.20;44.60;;;;;;5042162;28;20052;-34
2022/08/22 13:20:31;;;;;;;5.43;1.30;;;28.30;44.20;;;;;;5037395;28;20065;-35
2022/08/22 13:23:00;;;;;;;5.97;1.60;;;28.30;43.60;;;;;;5029444;28;20058;-34
2022/08/22 13:25:49;;;;;;;3.30;1.17;;;28.40;43.70;;;;;;5042400;28;20124;-35
2022/08/22 13:28:15;;;;;;;3.58;1.15;;;28.90;42.80;;;;;;5035652;28;20049;-44
2022/08/22 13:30:42;;;;;;;8.63;1.27;;;29.60;41.70;;;;;;5039445;28;20041;-35
2022/08/22 13:33:28;;;;;;;4.20;1.25;;;30.20;40.40;;;;;;5041093;28;20053;-34
2022/08/22 13:36:05;;;;;;;3.92;1.35;;;30.70;39.20;;;;;;5037448;28;20441;-35
2022/08/22 13:38:51;;;;;;;4.57;1.27;;;30.50;39.20;;;;;;5039729;28;20032;-35
2022/08/22 13:41:36;;;;;;;5.43;1.25;;;30.50;39.50;;;;;;5037959;28;20084;-43
2022/08/22 13:44:05;;;;;;;3.35;1.20;;;30.80;38.40;;;;;;5040479;28;20509;-36
2022/08/22 13:46:33;;;;;;;5.95;1.10;;;31.10;38.00;;;;;;5041481;28;20041;-41
2022/08/22 13:49:03;;;;;;;5.75;1.10;;;31.30;37.60;;;;;;5039982;28;20080;-36
2022/08/22 13:52:02;;;;;;;5.32;1.00;;;31.70;37.00;;;;;;5040323;28;20112;-36
2022/08/22 13:54:48;;;;;;;6.10;1.20;;;32.30;35.30;;;;;;5038480;28;20107;-37
2022/08/22 13:57:25;;;;;;;4.60;1.20;;;33.00;34.60;;;;;;5040694;28;20061;-36
2022/08/22 14:00:02;;;;;;;4.22;1.30;;;33.70;34.00;;;;;;5039978;28;20045;-38
2022/08/22 14:02:57;;;;;;;3.60;1.17;;;34.10;32.30;;;;;;5039292;28;20555;-39
2022/08/22 14:05:32;;;;;;;3.30;1.50;;;34.30;32.10;;;;;;5028376;28;20103;-37